createdAt,value
2017-08-06T00:00:11.234Z,27.53
2017-08-06T00:01:22.374Z,27.55
2017-08-06T00:02:35.607Z,27.46
2017-08-06T00:04:06.911Z,27.43
2017-08-06T00:05:17.330Z,27.33
2017-08-06T00:06:27.685Z,27.31
2017-08-06T00:07:37.732Z,27.31
2017-08-06T00:08:47.758Z,27.33
2017-08-06T00:09:58.113Z,27.3
2017-08-06T00:11:12.026Z,27.31
2017-08-06T00:12:22.054Z,27.31
2017-08-06T00:13:32.094Z,27.41
2017-08-06T00:14:42.451Z,27.33
2017-08-06T00:15:52.796Z,27.38
2017-08-06T00:17:03.192Z,27.28
2017-08-06T00:18:13.535Z,27.27
2017-08-06T00:19:23.592Z,27.31
2017-08-06T00:20:33.650Z,27.27
2017-08-06T00:21:44.019Z,27.23
2017-08-06T00:22:54.415Z,27.18
2017-08-06T00:24:04.450Z,27.13
2017-08-06T00:25:14.802Z,27.24
2017-08-06T00:26:25.178Z,27.27
2017-08-06T00:27:35.545Z,27.19
2017-08-06T00:28:45.625Z,27.24
2017-08-06T00:29:55.997Z,27.27
2017-08-06T00:31:06.360Z,27.27
2017-08-06T00:32:16.737Z,27.26
2017-08-06T00:33:26.782Z,27.28
2017-08-06T00:34:37.183Z,27.23
2017-08-06T00:35:47.534Z,27.19
2017-08-06T00:36:57.576Z,27.18
2017-08-06T00:38:07.925Z,27.18
2017-08-06T00:39:18.263Z,27.19
2017-08-06T00:40:28.657Z,27.19
2017-08-06T00:41:38.694Z,27.27
2017-08-06T00:42:49.044Z,27.21
2017-08-06T00:43:59.077Z,27.21
2017-08-06T00:45:09.450Z,27.28
2017-08-06T00:46:19.853Z,27.21
2017-08-06T00:47:30.194Z,27.16
2017-08-06T00:48:40.551Z,27.19
2017-08-06T00:49:50.900Z,27.21
2017-08-06T00:51:00.937Z,27.26
2017-08-06T00:52:11.336Z,27.28
2017-08-06T00:53:21.668Z,27.21
2017-08-06T00:54:32.007Z,27.28
2017-08-06T00:55:41.726Z,27.27
2017-08-06T00:56:52.087Z,27.3
2017-08-06T00:58:02.492Z,27.33
2017-08-06T00:59:12.210Z,27.33
2017-08-06T01:00:22.535Z,27.33
2017-08-06T01:01:32.582Z,27.33
2017-08-06T01:02:42.939Z,27.37
2017-08-06T01:03:53.341Z,27.38
2017-08-06T01:05:03.689Z,27.41
2017-08-06T01:06:13.714Z,27.37
2017-08-06T01:07:24.064Z,27.43
2017-08-06T01:08:36.735Z,27.37
2017-08-06T01:09:47.133Z,27.41
2017-08-06T01:10:57.506Z,27.38
2017-08-06T01:12:07.849Z,27.38
2017-08-06T01:13:18.198Z,27.31
2017-08-06T01:14:28.545Z,27.33
2017-08-06T01:15:38.941Z,27.36
2017-08-06T01:16:49.280Z,27.3
2017-08-06T01:17:59.626Z,27.31
2017-08-06T01:19:09.669Z,27.26
2017-08-06T01:20:20.035Z,27.27
2017-08-06T01:21:30.436Z,27.27
2017-08-06T01:22:40.785Z,27.21
2017-08-06T01:23:51.122Z,27.24
2017-08-06T01:25:01.473Z,27.23
2017-08-06T01:26:11.833Z,27.33
2017-08-06T01:27:21.606Z,27.28
2017-08-06T01:28:31.958Z,27.41
2017-08-06T01:29:42.317Z,27.36
2017-08-06T01:30:52.673Z,27.34
2017-08-06T01:32:02.704Z,27.27
2017-08-06T01:33:13.118Z,27.37
2017-08-06T01:34:23.465Z,27.41
2017-08-06T01:35:33.831Z,27.42
2017-08-06T01:36:44.193Z,27.42
2017-08-06T01:37:54.555Z,27.53
2017-08-06T01:39:04.657Z,27.51
2017-08-06T01:40:14.691Z,27.51
2017-08-06T01:41:24.419Z,27.45
2017-08-06T01:42:34.778Z,27.45
2017-08-06T01:43:44.836Z,27.42
2017-08-06T01:44:55.247Z,27.53
2017-08-06T01:46:05.285Z,27.53
2017-08-06T01:47:15.636Z,27.48
2017-08-06T01:48:25.692Z,27.52
2017-08-06T01:49:36.039Z,27.65
2017-08-06T01:50:46.452Z,27.64
2017-08-06T01:51:56.798Z,27.62
2017-08-06T01:53:06.822Z,27.53
2017-08-06T01:54:16.553Z,27.62
2017-08-06T01:55:26.904Z,27.62
2017-08-06T01:56:37.307Z,27.64
2017-08-06T01:57:47.658Z,27.61
2017-08-06T01:58:58.010Z,27.62
2017-08-06T02:00:08.059Z,27.66
2017-08-06T02:01:18.093Z,27.61
2017-08-06T02:02:28.508Z,27.49
2017-08-06T02:03:38.863Z,27.52
2017-08-06T02:04:49.197Z,27.61
2017-08-06T02:05:59.245Z,27.57
2017-08-06T02:07:09.267Z,27.59
2017-08-06T02:08:18.737Z,27.64
2017-08-06T02:09:28.774Z,27.62
2017-08-06T02:10:39.121Z,27.62
2017-08-06T02:11:49.821Z,27.62
2017-08-06T02:13:00.205Z,27.49
2017-08-06T02:14:10.290Z,27.57
2017-08-06T02:15:20.634Z,27.59
2017-08-06T02:16:30.980Z,27.52
2017-08-06T02:17:41.021Z,27.57
2017-08-06T02:18:51.058Z,27.65
2017-08-06T02:20:01.450Z,27.53
2017-08-06T02:21:11.499Z,27.59
2017-08-06T02:22:21.537Z,27.55
2017-08-06T02:23:31.255Z,27.57
2017-08-06T02:24:41.610Z,27.51
2017-08-06T02:25:52.014Z,27.51
2017-08-06T02:27:02.383Z,27.41
2017-08-06T02:28:12.736Z,27.24
2017-08-06T02:29:23.101Z,27.16
2017-08-06T02:30:33.440Z,27.09
2017-08-06T02:31:43.824Z,27.08
2017-08-06T02:32:57.083Z,26.97
2017-08-06T02:34:07.446Z,26.94
2017-08-06T02:35:17.802Z,26.81
2017-08-06T02:36:28.145Z,26.72
2017-08-06T02:37:38.552Z,26.63
2017-08-06T02:38:48.913Z,26.59
2017-08-06T02:39:59.256Z,26.47
2017-08-06T02:41:09.302Z,26.3
2017-08-06T02:42:19.346Z,26.37
2017-08-06T02:43:29.749Z,26.27
2017-08-06T02:44:40.114Z,26.2
2017-08-06T02:45:50.152Z,26.04
2017-08-06T02:47:00.182Z,26.06
2017-08-06T02:48:10.538Z,25.94
2017-08-06T02:49:20.639Z,25.88
2017-08-06T02:50:31.795Z,25.82
2017-08-06T02:51:42.149Z,25.7
2017-08-06T02:52:52.492Z,25.74
2017-08-06T02:54:02.823Z,25.63
2017-08-06T02:55:13.539Z,25.67
2017-08-06T02:56:23.564Z,25.69
2017-08-06T02:57:33.623Z,25.63
2017-08-06T02:58:43.676Z,25.57
2017-08-06T02:59:54.034Z,25.51
2017-08-06T03:01:04.432Z,25.39
2017-08-06T03:02:14.789Z,25.39
2017-08-06T03:34:09.063Z,22.79
2017-08-06T03:35:19.402Z,22.73
2017-08-06T03:36:29.422Z,22.75
2017-08-06T03:37:39.763Z,22.78
2017-08-06T03:38:50.106Z,22.86
2017-08-06T03:40:00.497Z,23
2017-08-06T03:41:10.851Z,22.99
2017-08-06T03:42:21.713Z,23.16
2017-08-06T03:43:31.736Z,23.22
2017-08-06T03:44:41.760Z,23.37
2017-08-06T03:45:52.163Z,23.52
2017-08-06T03:47:02.193Z,23.6
2017-08-06T03:48:12.530Z,23.64
2017-08-06T03:49:22.557Z,23.72
2017-08-06T03:50:32.582Z,23.9
2017-08-06T03:51:42.964Z,24
2017-08-06T03:52:53.325Z,24
2017-08-06T03:54:03.713Z,24.04
2017-08-06T03:55:14.058Z,24.17
2017-08-06T03:56:24.397Z,24.26
2017-08-06T03:57:34.491Z,24.32
2017-08-06T03:58:44.841Z,24.42
2017-08-06T03:59:55.187Z,24.48
2017-08-06T04:01:05.223Z,24.55
2017-08-06T04:02:15.570Z,24.51
2017-08-06T04:03:25.650Z,24.58
2017-08-06T04:04:35.704Z,24.67
2017-08-06T04:05:45.773Z,24.58
2017-08-06T04:06:56.117Z,24.74
2017-08-06T04:08:06.463Z,24.69
2017-08-06T04:09:16.570Z,24.71
2017-08-06T04:10:26.942Z,24.74
2017-08-06T04:11:37.290Z,24.83
2017-08-06T04:12:47.630Z,24.74
2017-08-06T04:13:57.657Z,24.8
2017-08-06T04:15:08.063Z,24.78
2017-08-06T04:16:18.107Z,24.83
2017-08-06T04:17:28.452Z,24.78
2017-08-06T04:18:38.483Z,24.82
2017-08-06T04:19:48.831Z,24.86
2017-08-06T04:20:59.222Z,24.86
2017-08-06T04:22:09.264Z,24.83
2017-08-06T04:23:19.612Z,24.87
2017-08-06T04:24:29.338Z,24.87
2017-08-06T04:25:41.069Z,24.96
2017-08-06T04:26:51.467Z,24.96
2017-08-06T04:28:01.513Z,25.01
2017-08-06T04:29:11.545Z,25.01
2017-08-06T04:30:21.592Z,25.04
2017-08-06T04:31:31.922Z,25.08
2017-08-06T04:32:42.014Z,25.22
2017-08-06T04:33:52.351Z,25.12
2017-08-06T04:35:02.075Z,25.27
2017-08-06T04:36:12.412Z,25.3
2017-08-06T04:37:22.774Z,25.3
2017-08-06T04:38:33.166Z,25.38
2017-08-06T04:39:43.507Z,25.54
2017-08-06T04:40:53.839Z,25.62
2017-08-06T04:42:03.870Z,25.76
2017-08-06T04:43:19.333Z,25.76
2017-08-06T04:44:29.728Z,25.84
2017-08-06T04:45:40.075Z,25.96
2017-08-06T04:46:50.408Z,26.03
2017-08-06T04:48:00.435Z,25.99
2017-08-06T04:49:10.797Z,26.12
2017-08-06T04:50:20.870Z,26.16
2017-08-06T04:51:31.215Z,26.15
2017-08-06T04:52:41.247Z,26.09
2017-08-06T04:53:51.298Z,26.16
2017-08-06T04:55:01.649Z,26.16
2017-08-06T04:56:12.040Z,26.04
2017-08-06T04:57:22.392Z,26.04
2017-08-06T04:58:32.749Z,26.07
2017-08-06T04:59:42.777Z,26.19
2017-08-06T05:00:59.182Z,26.12
2017-08-06T05:02:09.576Z,26.12
2017-08-06T05:03:19.916Z,26.31
2017-08-06T05:04:29.942Z,26.26
2017-08-06T05:05:40.284Z,26.35
2017-08-06T05:06:50.318Z,26.32
2017-08-06T05:08:00.710Z,26.37
2017-08-06T05:09:10.750Z,26.44
2017-08-06T05:10:21.087Z,26.45
2017-08-06T05:11:31.430Z,26.44
2017-08-06T05:12:41.457Z,26.44
2017-08-06T05:13:56.250Z,26.45
2017-08-06T05:15:06.592Z,26.42
2017-08-06T05:16:16.631Z,26.44
2017-08-06T05:17:26.663Z,26.52
2017-08-06T05:18:38.033Z,26.68
2017-08-06T05:19:48.412Z,26.96
2017-08-06T05:20:58.453Z,27.13
2017-08-06T05:22:14.212Z,27.3
2017-08-06T05:23:24.560Z,27.53
2017-08-06T05:24:34.903Z,27.59
2017-08-06T05:25:51.105Z,27.59
2017-08-06T05:27:01.462Z,27.76
2017-08-06T05:28:11.809Z,27.86
2017-08-06T05:29:22.746Z,27.91
2017-08-06T05:30:32.777Z,27.98
2017-08-06T05:31:42.874Z,29.24
2017-08-06T05:32:53.215Z,29.7
2017-08-06T05:34:03.545Z,29.81
2017-08-06T05:35:13.589Z,30.16
2017-08-06T05:36:23.633Z,29.61
2017-08-06T05:37:33.717Z,29.35
2017-08-06T05:38:51.216Z,28.97
2017-08-06T05:40:06.516Z,28.75
2017-08-06T05:41:16.860Z,28.65
2017-08-06T05:42:27.263Z,28.58
2017-08-06T05:43:37.287Z,28.51
2017-08-06T05:44:47.650Z,28.49
2017-08-06T05:45:57.697Z,28.51
2017-08-06T05:47:08.043Z,28.49
2017-08-06T05:48:18.440Z,28.27
2017-08-06T05:49:28.803Z,28.18
2017-08-06T05:50:39.177Z,28.14
2017-08-06T05:51:49.534Z,28.11
2017-08-06T05:52:59.561Z,28.16
2017-08-06T05:54:09.952Z,28.03
2017-08-06T05:55:20.393Z,28.03
2017-08-06T05:56:30.430Z,28.05
2017-08-06T05:57:40.780Z,28.12
2017-08-06T05:58:51.136Z,28.14
2017-08-06T06:00:01.541Z,28.16
2017-08-06T06:01:11.894Z,28.31
2017-08-06T06:02:22.263Z,28.17
2017-08-06T06:03:32.603Z,28.03
2017-08-06T06:04:43.450Z,27.86
2017-08-06T06:05:55.412Z,27.79
2017-08-06T06:07:05.762Z,27.62
2017-08-06T06:08:16.611Z,27.38
2017-08-06T06:09:26.663Z,27.38
2017-08-06T06:10:36.690Z,27.24
2017-08-06T06:11:47.134Z,27.13
2017-08-06T06:12:57.489Z,26.96
2017-08-06T06:14:07.824Z,27
2017-08-06T06:15:18.170Z,26.81
2017-08-06T06:16:28.527Z,26.79
2017-08-06T06:17:39.169Z,26.71
2017-08-06T06:18:49.531Z,26.68
2017-08-06T06:19:59.575Z,26.59
2017-08-06T06:21:09.610Z,26.64
2017-08-06T06:22:21.392Z,26.61
2017-08-06T06:23:31.780Z,26.68
2017-08-06T06:24:41.806Z,26.67
2017-08-06T06:25:51.884Z,26.67
2017-08-06T06:27:01.910Z,26.84
2017-08-06T06:28:12.280Z,26.81
2017-08-06T06:29:25.269Z,26.87
2017-08-06T06:30:35.290Z,26.96
2017-08-06T06:31:45.642Z,27.11
2017-08-06T06:32:56.003Z,27.21
2017-08-06T06:34:05.755Z,27.23
2017-08-06T06:35:15.850Z,27.37
2017-08-06T06:36:25.897Z,27.38
2017-08-06T06:37:36.257Z,27.53
2017-08-06T06:38:46.289Z,27.57
2017-08-06T06:39:56.642Z,27.59
2017-08-06T06:41:07.043Z,27.61
2017-08-06T06:42:17.081Z,27.62
2017-08-06T06:43:26.796Z,27.62
2017-08-06T06:44:37.151Z,27.61
2017-08-06T06:45:47.523Z,27.72
2017-08-06T06:46:57.926Z,27.76
2017-08-06T06:48:08.278Z,27.71
2017-08-06T06:49:18.300Z,27.71
2017-08-06T06:50:28.649Z,27.69
2017-08-06T06:51:39.004Z,27.72
2017-08-06T06:52:49.414Z,27.81
2017-08-06T06:53:59.454Z,27.84
2017-08-06T06:55:09.800Z,27.93
2017-08-06T06:56:20.152Z,27.99
2017-08-06T06:57:30.499Z,28.14
2017-08-06T06:58:40.915Z,28.09
2017-08-06T06:59:51.266Z,28.09
2017-08-06T07:01:01.626Z,28.09
2017-08-06T07:02:11.995Z,28.03
2017-08-06T07:03:22.340Z,27.94
2017-08-06T07:04:32.752Z,27.74
2017-08-06T07:05:42.491Z,27.52
2017-08-06T07:06:52.838Z,27.33
2017-08-06T07:08:03.191Z,27.12
2017-08-06T07:09:13.217Z,27
2017-08-06T07:10:23.618Z,26.91
2017-08-06T07:11:33.652Z,26.96
2017-08-06T07:12:43.689Z,26.96
2017-08-06T07:13:54.042Z,26.91
2017-08-06T07:15:04.387Z,26.91
2017-08-06T07:16:14.792Z,26.9
2017-08-06T07:17:25.139Z,26.97
2017-08-06T07:18:35.519Z,26.93
2017-08-06T07:19:45.560Z,26.97
2017-08-06T07:20:55.922Z,26.97
2017-08-06T07:22:06.009Z,26.76
2017-08-06T07:23:16.371Z,26.68
2017-08-06T07:24:25.801Z,26.53
2017-08-06T07:25:36.391Z,26.45
2017-08-06T07:26:46.734Z,26.27
2017-08-06T07:27:57.132Z,26.27
2017-08-06T07:29:07.479Z,26.34
2017-08-06T07:30:17.832Z,26.31
2017-08-06T07:31:28.181Z,26.39
2017-08-06T07:32:38.513Z,26.32
2017-08-06T07:33:48.606Z,26.31
2017-08-06T07:34:58.634Z,26.34
2017-08-06T07:36:08.684Z,26.39
2017-08-06T07:37:18.955Z,26.5
2017-08-06T07:38:29.293Z,26.6
2017-08-06T07:39:39.708Z,26.44
2017-08-06T07:40:50.056Z,26.41
2017-08-06T07:42:00.096Z,26.27
2017-08-06T07:43:10.132Z,26.23
2017-08-06T07:44:20.495Z,26.22
2017-08-06T07:45:30.900Z,26.19
2017-08-06T07:46:41.244Z,26.26
2017-08-06T07:47:51.607Z,26.23
2017-08-06T07:49:02.299Z,26.15
2017-08-06T07:50:12.668Z,26.07
2017-08-06T07:51:22.757Z,25.96
2017-08-06T07:52:33.099Z,25.96
2017-08-06T07:53:43.445Z,25.93
2017-08-06T08:03:30.842Z,25.44
2017-08-06T08:04:41.190Z,25.39
2017-08-06T08:05:51.564Z,25.29
2017-08-06T08:07:01.932Z,25.23
2017-08-06T08:08:12.030Z,25.12
2017-08-06T08:09:22.386Z,25.14
2017-08-06T08:10:32.431Z,24.97
2017-08-06T08:11:42.780Z,24.9
2017-08-06T08:12:53.187Z,24.89
2017-08-06T08:14:03.530Z,24.78
2017-08-06T08:15:13.600Z,24.67
2017-08-06T08:16:23.970Z,24.74
2017-08-06T08:17:34.303Z,24.7
2017-08-06T08:18:44.641Z,24.58
2017-08-06T08:19:55.012Z,24.49
2017-08-06T08:21:05.358Z,24.32
2017-08-06T08:22:15.713Z,24.15
2017-08-06T08:23:26.108Z,24.04
2017-08-06T08:24:36.148Z,23.93
2017-08-06T08:25:46.515Z,24
2017-08-06T08:26:56.550Z,23.89
2017-08-06T08:28:09.505Z,23.81
2017-08-06T08:29:21.055Z,23.7
2017-08-06T08:30:31.417Z,23.55
2017-08-06T08:31:41.467Z,23.56
2017-08-06T08:32:51.822Z,23.29
2017-08-06T08:34:02.182Z,23.21
2017-08-06T08:35:12.272Z,23.09
2017-08-06T08:36:22.616Z,22.94
2017-08-06T08:37:32.957Z,22.91
2017-08-06T08:38:43.305Z,22.78
2017-08-06T08:39:53.328Z,22.75
2017-08-06T08:41:03.140Z,22.66
2017-08-06T08:42:13.491Z,22.67
2017-08-06T08:43:23.848Z,22.55
2017-08-06T08:44:34.184Z,22.48
2017-08-06T08:45:43.919Z,22.41
2017-08-06T08:46:54.325Z,22.42
2017-08-06T08:48:04.670Z,22.45
2017-08-06T08:49:14.716Z,22.44
2017-08-06T08:50:25.068Z,22.46
2017-08-06T08:51:35.442Z,22.44
2017-08-06T08:52:45.851Z,22.41
2017-08-06T08:53:55.905Z,22.54
2017-08-06T08:55:06.271Z,22.52
2017-08-06T08:56:16.623Z,22.51
2017-08-06T08:57:26.964Z,22.52
2017-08-06T08:58:37.393Z,22.54
2017-08-06T08:59:49.770Z,22.51
2017-08-06T09:00:59.799Z,22.46
2017-08-06T09:02:09.535Z,22.49
2017-08-06T09:03:19.870Z,22.51
2017-08-06T09:04:30.291Z,22.66
2017-08-06T09:05:40.343Z,22.7
2017-08-06T09:06:50.698Z,22.91
2017-08-06T09:08:01.058Z,23.07
2017-08-06T09:09:11.436Z,22.97
2017-08-06T09:10:21.860Z,23.1
2017-08-06T09:11:32.237Z,23.09
2017-08-06T09:12:44.496Z,23.04
2017-08-06T09:13:54.850Z,23.03
2017-08-06T09:15:05.219Z,23.07
2017-08-06T09:16:15.308Z,23
2017-08-06T09:17:25.683Z,23
2017-08-06T09:18:36.053Z,23.1
2017-08-06T09:19:46.410Z,23.09
2017-08-06T09:20:56.762Z,23.18
2017-08-06T09:22:07.157Z,23.12
2017-08-06T09:23:17.520Z,23.15
2017-08-06T09:24:27.930Z,23.32
2017-08-06T09:25:38.303Z,23.21
2017-08-06T09:26:48.668Z,23.29
2017-08-06T09:27:59.074Z,23.29
2017-08-06T09:29:09.104Z,23.35
2017-08-06T09:30:19.457Z,23.42
2017-08-06T09:31:29.829Z,23.57
2017-08-06T09:32:40.177Z,23.66
2017-08-06T09:33:50.592Z,23.72
2017-08-06T09:35:00.945Z,23.87
2017-08-06T09:36:11.299Z,23.99
2017-08-06T09:37:21.367Z,24.15
2017-08-06T09:38:31.717Z,24.32
2017-08-06T09:39:41.813Z,24.54
2017-08-06T09:40:52.172Z,24.64
2017-08-06T09:42:02.513Z,24.69
2017-08-06T09:43:12.554Z,24.78
2017-08-06T09:44:22.900Z,25.02
2017-08-06T09:45:32.991Z,25.3
2017-08-06T09:46:43.364Z,25.42
2017-08-06T09:47:53.400Z,25.57
2017-08-06T09:49:03.456Z,25.57
2017-08-06T09:50:13.809Z,25.56
2017-08-06T09:51:24.214Z,25.42
2017-08-06T09:52:34.572Z,25.33
2017-08-06T09:53:44.634Z,25.11
2017-08-06T09:54:55.001Z,24.89
2017-08-06T09:56:05.358Z,24.83
2017-08-06T09:57:15.774Z,24.58
2017-08-06T09:58:25.814Z,24.45
2017-08-06T09:59:35.857Z,24.3
2017-08-06T10:00:46.246Z,24.17
2017-08-06T10:01:56.597Z,24.12
2017-08-06T10:03:06.986Z,24.14
2017-08-06T10:04:17.035Z,24.14
2017-08-06T10:05:27.383Z,24.22
2017-08-06T10:06:38.227Z,24.34
2017-08-06T10:07:48.565Z,24.29
2017-08-06T10:09:00.018Z,24.22
2017-08-06T10:10:10.052Z,24.18
2017-08-06T10:11:20.087Z,24.04
2017-08-06T10:12:30.123Z,23.96
2017-08-06T10:13:40.491Z,23.81
2017-08-06T10:14:50.887Z,23.78
2017-08-06T10:16:01.226Z,23.63
2017-08-06T10:17:13.636Z,23.64
2017-08-06T10:18:23.983Z,23.59
2017-08-06T10:19:34.338Z,23.62
2017-08-06T10:20:44.428Z,23.59
2017-08-06T10:21:54.477Z,23.63
2017-08-06T10:23:04.821Z,23.62
2017-08-06T10:24:15.189Z,23.63
2017-08-06T10:25:25.556Z,23.6
2017-08-06T10:26:35.963Z,23.57
2017-08-06T10:27:46.311Z,23.63
2017-08-06T10:28:56.665Z,23.57
2017-08-06T10:30:07.030Z,23.6
2017-08-06T10:31:16.124Z,23.7
2017-08-06T10:32:26.535Z,23.67
2017-08-06T10:33:36.581Z,23.74
2017-08-06T10:34:46.936Z,23.77
2017-08-06T10:35:57.285Z,23.89
2017-08-06T10:37:07.331Z,23.84
2017-08-06T10:38:17.728Z,23.94
2017-08-06T10:39:28.082Z,24.09
2017-08-06T10:40:38.119Z,24.12
2017-08-06T10:41:48.467Z,24.34
2017-08-06T10:42:58.499Z,24.4
2017-08-06T10:44:08.604Z,24.44
2017-08-06T10:45:18.653Z,24.27
2017-08-06T10:46:29.010Z,24.21
2017-08-06T10:47:40.524Z,24.15
2017-08-06T10:48:50.893Z,24.08
2017-08-06T10:50:01.293Z,24.03
2017-08-06T10:51:11.662Z,24.04
2017-08-06T10:52:22.007Z,23.93
2017-08-06T10:53:32.388Z,23.89
2017-08-06T10:54:42.432Z,23.9
2017-08-06T10:55:52.539Z,24.02
2017-08-06T10:57:02.885Z,23.99
2017-08-06T10:58:13.230Z,24.03
2017-08-06T10:59:23.277Z,24.09
2017-08-06T11:00:33.638Z,24.17
2017-08-06T11:01:43.745Z,24.27
2017-08-06T11:02:54.114Z,24.34
2017-08-06T11:04:04.462Z,24.19
2017-08-06T11:05:14.832Z,24.18
2017-08-06T11:06:25.218Z,24.18
2017-08-06T11:07:35.614Z,24.27
2017-08-06T11:08:45.684Z,24.26
2017-08-06T11:09:56.035Z,24.3
2017-08-06T11:11:06.110Z,24.27
2017-08-06T11:12:16.133Z,24.32
2017-08-06T11:13:26.549Z,24.3
2017-08-06T11:14:36.575Z,24.29
2017-08-06T11:15:46.922Z,24.34
2017-08-06T11:16:56.976Z,24.45
2017-08-06T11:18:07.024Z,24.45
2017-08-06T11:19:17.142Z,24.51
2017-08-06T11:20:27.483Z,24.52
2017-08-06T11:21:37.846Z,24.46
2017-08-06T11:22:47.896Z,24.51
2017-08-06T11:23:58.231Z,24.44
2017-08-06T11:25:09.330Z,24.33
2017-08-06T11:26:19.672Z,24.44
2017-08-06T11:27:30.023Z,24.48
2017-08-06T11:28:39.441Z,24.48
2017-08-06T11:29:49.484Z,24.45
2017-08-06T11:30:59.266Z,24.49
2017-08-06T11:32:09.302Z,24.56
2017-08-06T11:33:19.348Z,24.61
2017-08-06T11:34:29.086Z,24.75
2017-08-06T11:35:39.426Z,24.77
2017-08-06T11:36:49.837Z,24.89
2017-08-06T11:38:00.201Z,24.97
2017-08-06T11:39:10.599Z,24.96
2017-08-06T11:40:20.640Z,25.14
2017-08-06T11:41:31.008Z,25.23
2017-08-06T11:42:41.099Z,25.27
2017-08-06T11:43:51.460Z,25.3
2017-08-06T11:45:01.825Z,25.33
2017-08-06T11:46:11.880Z,25.27
2017-08-06T11:47:22.225Z,25.29
2017-08-06T11:48:32.634Z,25.26
2017-08-06T11:49:42.997Z,25.17
2017-08-06T11:50:53.366Z,25.17
2017-08-06T11:52:03.441Z,25.11
2017-08-06T11:53:13.794Z,25.24
2017-08-06T11:54:24.216Z,25.33
2017-08-06T11:55:34.583Z,25.54
2017-08-06T11:56:44.975Z,25.62
2017-08-06T11:57:55.339Z,25.88
2017-08-06T11:59:05.687Z,26.12
2017-08-06T12:00:15.790Z,26.35
2017-08-06T12:01:28.343Z,26.53
2017-08-06T12:02:38.908Z,26.72
2017-08-06T12:03:48.973Z,27
2017-08-06T12:04:59.328Z,27.05
2017-08-06T12:06:09.729Z,27.12
2017-08-06T12:07:20.073Z,27.27
2017-08-06T12:08:30.418Z,27.43
2017-08-06T12:09:40.465Z,27.72
2017-08-06T12:10:50.824Z,27.99
2017-08-06T12:12:01.257Z,28.55
2017-08-06T12:13:11.299Z,28.91
2017-08-06T12:14:21.662Z,28.76
2017-08-06T12:15:32.043Z,28.72
2017-08-06T12:16:42.390Z,28.55
2017-08-06T12:17:52.800Z,28.41
2017-08-06T12:19:03.164Z,28.21
2017-08-06T12:20:13.528Z,28.16
2017-08-06T12:21:23.899Z,28.46
2017-08-06T12:22:33.963Z,28.73
2017-08-06T12:23:44.405Z,28.82
2017-08-06T12:24:54.758Z,28.95
2017-08-06T12:26:05.128Z,28.95
2017-08-06T12:27:15.195Z,29.06
2017-08-06T12:28:25.580Z,29.11
2017-08-06T12:29:35.999Z,29.1
2017-08-06T12:30:46.048Z,29.13
2017-08-06T12:31:56.402Z,29.11
2017-08-06T12:33:06.760Z,29.13
2017-08-06T12:34:17.121Z,29.29
2017-08-06T12:35:27.538Z,29.29
2017-08-06T12:36:39.461Z,29.47
2017-08-06T12:37:49.502Z,29.47
2017-08-06T12:38:59.880Z,29.45
2017-08-06T12:40:09.932Z,29.52
2017-08-06T12:41:20.330Z,29.58
2017-08-06T12:42:30.685Z,29.6
2017-08-06T12:43:41.074Z,29.65
2017-08-06T12:44:51.428Z,29.66
2017-08-06T12:46:01.485Z,29.63
2017-08-06T12:47:11.834Z,29.72
2017-08-06T12:48:22.189Z,30
2017-08-06T12:49:32.564Z,30.34
2017-08-06T12:50:42.615Z,30.81
2017-08-06T12:51:52.652Z,30.67
2017-08-06T12:53:02.707Z,30.62
2017-08-06T12:54:13.075Z,30.45
2017-08-06T12:55:23.430Z,30.48
2017-08-06T12:56:33.834Z,30.35
2017-08-06T12:57:44.198Z,30.29
2017-08-06T12:58:54.559Z,30.26
2017-08-06T13:00:04.945Z,30.16
2017-08-06T13:01:15.015Z,30
2017-08-06T13:02:25.368Z,29.87
2017-08-06T13:03:35.741Z,29.73
2017-08-06T13:04:45.802Z,29.73
2017-08-06T13:05:56.148Z,29.76
2017-08-06T13:07:06.497Z,29.67
2017-08-06T13:08:16.551Z,29.73
2017-08-06T13:09:26.931Z,29.66
2017-08-06T13:10:37.300Z,29.65
2017-08-06T13:11:47.663Z,29.66
2017-08-06T13:12:57.704Z,29.61
2017-08-06T13:14:07.751Z,29.7
2017-08-06T13:15:18.123Z,29.66
2017-08-06T13:16:28.177Z,29.57
2017-08-06T13:17:38.533Z,29.54
2017-08-06T13:18:48.889Z,29.3
2017-08-06T13:19:58.614Z,29.11
2017-08-06T13:21:09.043Z,28.94
2017-08-06T13:22:19.078Z,28.68
2017-08-06T13:23:29.458Z,28.48
2017-08-06T13:24:39.823Z,28.2
2017-08-06T13:25:50.181Z,28.06
2017-08-06T13:27:00.258Z,27.89
2017-08-06T13:28:10.612Z,27.62
2017-08-06T13:29:20.650Z,27.42
2017-08-06T13:30:30.387Z,27.28
2017-08-06T13:31:40.763Z,27.11
2017-08-06T13:32:51.175Z,27.12
2017-08-06T13:34:01.229Z,27.15
2017-08-06T13:35:11.600Z,27.21
2017-08-06T13:36:21.629Z,27.26
2017-08-06T13:37:31.362Z,27.23
2017-08-06T13:38:41.798Z,27.16
2017-08-06T13:39:51.858Z,27.08
2017-08-06T13:41:03.269Z,26.93
2017-08-06T13:42:13.307Z,27.04
2017-08-06T13:43:23.670Z,26.93
2017-08-06T13:44:34.037Z,26.81
2017-08-06T13:45:44.394Z,26.71
2017-08-06T13:46:54.740Z,26.54
2017-08-06T13:48:05.111Z,26.45
2017-08-06T13:49:15.473Z,26.26
2017-08-06T13:50:25.506Z,26.24
2017-08-06T13:51:35.863Z,26.26
2017-08-06T13:52:46.215Z,26.15
2017-08-06T13:53:56.258Z,26.11
2017-08-06T13:55:06.610Z,26.34
2017-08-06T13:56:17.001Z,26.47
2017-08-06T13:57:27.360Z,26.71
2017-08-06T13:58:37.741Z,26.94
2017-08-06T13:59:47.833Z,27.31
2017-08-06T14:00:58.172Z,27.57
2017-08-06T14:02:08.240Z,27.68
2017-08-06T14:03:18.607Z,27.87
2017-08-06T14:04:28.654Z,27.94
2017-08-06T14:05:38.699Z,27.99
2017-08-06T14:06:49.076Z,28.08
2017-08-06T14:07:59.579Z,28.09
2017-08-06T14:09:09.954Z,28.08
2017-08-06T14:10:20.547Z,28.01
2017-08-06T14:11:30.933Z,27.9
2017-08-06T14:12:40.986Z,27.91
2017-08-06T14:13:51.018Z,27.94
2017-08-06T14:15:01.385Z,27.93
2017-08-06T14:16:11.198Z,27.9
2017-08-06T14:17:21.567Z,28.01
2017-08-06T14:18:31.922Z,27.99
2017-08-06T14:19:42.268Z,28.01
2017-08-06T14:20:52.306Z,28.05
2017-08-06T14:22:02.354Z,27.9
2017-08-06T14:23:12.711Z,27.84
2017-08-06T14:24:22.757Z,27.69
2017-08-06T14:25:32.808Z,27.57
2017-08-06T14:26:42.534Z,27.46
2017-08-06T14:27:52.893Z,27.51
2017-08-06T14:29:03.255Z,27.55
2017-08-06T14:30:14.145Z,27.51
2017-08-06T14:31:24.220Z,27.62
2017-08-06T14:32:34.255Z,27.71
2017-08-06T14:33:44.295Z,27.76
2017-08-06T14:34:54.640Z,27.75
2017-08-06T14:36:04.997Z,27.75
2017-08-06T14:37:15.034Z,27.74
2017-08-06T14:38:25.081Z,27.79
2017-08-06T14:39:35.474Z,27.75
2017-08-06T14:40:45.834Z,27.76
2017-08-06T14:41:55.869Z,27.71
2017-08-06T14:43:05.905Z,27.69
2017-08-06T14:44:16.255Z,27.57
2017-08-06T14:45:26.633Z,27.62
2017-08-06T14:46:37.017Z,27.37
2017-08-06T14:47:47.068Z,27.3
2017-08-06T14:48:57.425Z,27.18
2017-08-06T14:50:07.479Z,26.99
2017-08-06T14:51:17.520Z,26.87
2017-08-06T14:52:27.559Z,26.71
2017-08-06T14:53:37.931Z,26.59
2017-08-06T14:54:48.284Z,26.44
2017-08-06T14:55:58.645Z,26.31
2017-08-06T14:57:09.006Z,26.35
2017-08-06T14:58:19.029Z,26.23
2017-08-06T14:59:31.321Z,26.23
2017-08-06T15:00:41.673Z,26.16
2017-08-06T15:01:51.710Z,26.17
2017-08-06T15:03:02.063Z,26.16
2017-08-06T15:04:12.101Z,26.11
2017-08-06T15:05:22.448Z,26.31
2017-08-06T15:06:32.803Z,26.44
2017-08-06T15:07:45.364Z,26.56
2017-08-06T15:08:55.733Z,26.61
2017-08-06T15:10:07.130Z,26.6
2017-08-06T15:11:17.490Z,26.69
2017-08-06T15:12:27.533Z,26.79
2017-08-06T15:13:37.891Z,26.96
2017-08-06T15:14:48.265Z,26.94
2017-08-06T15:15:58.325Z,26.99
2017-08-06T15:17:08.691Z,26.96
2017-08-06T15:18:19.062Z,26.99
2017-08-06T15:19:29.102Z,26.93
2017-08-06T15:20:39.127Z,26.97
2017-08-06T15:21:49.489Z,27.08
2017-08-06T15:22:59.844Z,27.01
2017-08-06T15:24:10.194Z,27.09
2017-08-06T15:25:20.580Z,27.01
2017-08-06T15:26:30.983Z,26.76
2017-08-06T15:27:41.022Z,26.59
2017-08-06T15:28:51.069Z,26.41
2017-08-06T15:30:01.112Z,26.16
2017-08-06T15:31:11.470Z,25.96
2017-08-06T15:32:21.501Z,25.84
2017-08-06T15:33:31.844Z,25.66
2017-08-06T15:34:42.213Z,25.54
2017-08-06T15:35:55.085Z,25.37
2017-08-06T15:37:05.442Z,25.15
2017-08-06T15:38:15.804Z,25.12
2017-08-06T15:39:26.497Z,25.05
2017-08-06T15:40:36.868Z,24.86
2017-08-06T15:41:46.909Z,24.86
2017-08-06T15:42:56.954Z,24.85
2017-08-06T15:44:07.309Z,24.8
2017-08-06T15:45:17.673Z,24.74
2017-08-06T15:46:28.036Z,24.7
2017-08-06T15:47:38.374Z,24.71
2017-08-06T15:48:48.755Z,24.66